createdAt,value
2023-04-23T00:00:12.705Z,10.70
2023-04-23T00:02:42.683Z,10.70
2023-04-23T00:05:10.436Z,10.80
2023-04-23T00:07:37.688Z,11.00
2023-04-23T00:10:09.070Z,10.70
2023-04-23T00:12:36.687Z,10.70
2023-04-23T00:15:04.701Z,10.70
2023-04-23T00:17:31.859Z,10.70
2023-04-23T00:19:58.857Z,10.60
2023-04-23T00:22:25.834Z,10.40
2023-04-23T00:24:52.831Z,10.30
2023-04-23T00:27:21.550Z,10.30
2023-04-23T00:29:51.492Z,10.30
2023-04-23T00:32:18.592Z,10.20
2023-04-23T00:34:49.031Z,10.20
2023-04-23T00:37:18.519Z,10.30
2023-04-23T00:39:45.870Z,10.10
2023-04-23T00:42:14.033Z,10.10
2023-04-23T00:44:44.281Z,10.00
2023-04-23T00:47:15.623Z,10.10
2023-04-23T00:49:43.082Z,10.10
2023-04-23T00:52:10.278Z,10.10
2023-04-23T00:54:37.191Z,10.10
2023-04-23T00:57:04.249Z,10.10
2023-04-23T00:59:32.284Z,10.20
2023-04-23T01:01:59.998Z,10.20
2023-04-23T01:04:29.748Z,10.20
2023-04-23T01:06:58.049Z,10.40
2023-04-23T01:09:27.800Z,10.40
2023-04-23T01:11:55.318Z,10.60
2023-04-23T01:14:22.420Z,10.80
2023-04-23T01:16:49.617Z,10.90
2023-04-23T01:19:17.562Z,11.00
2023-04-23T01:21:45.873Z,11.10
2023-04-23T01:24:14.224Z,11.20
2023-04-23T01:26:41.305Z,11.30
2023-04-23T01:29:10.221Z,11.40
2023-04-23T01:31:37.727Z,11.40
2023-04-23T01:34:05.356Z,11.40
2023-04-23T01:36:33.380Z,11.40
2023-04-23T01:39:02.497Z,11.50
2023-04-23T01:41:29.761Z,11.60
2023-04-23T01:43:57.867Z,11.50
2023-04-23T01:46:26.292Z,11.50
2023-04-23T01:48:53.324Z,11.60
2023-04-23T01:51:20.354Z,11.80
2023-04-23T01:53:47.259Z,11.70
2023-04-23T01:56:16.996Z,11.80
2023-04-23T01:58:44.487Z,11.70
2023-04-23T02:01:11.939Z,11.80
2023-04-23T02:03:39.101Z,11.80
2023-04-23T02:06:06.531Z,11.80
2023-04-23T02:08:34.321Z,11.90
2023-04-23T02:11:01.620Z,11.80
2023-04-23T02:13:28.549Z,11.80
2023-04-23T02:15:55.640Z,11.90
2023-04-23T02:18:22.624Z,11.90
2023-04-23T02:20:51.975Z,12.00
2023-04-23T02:23:18.866Z,12.00
2023-04-23T02:25:46.178Z,12.00
2023-04-23T02:28:13.575Z,11.90
2023-04-23T02:30:47.892Z,12.00
2023-04-23T02:33:16.190Z,12.00
2023-04-23T02:35:44.287Z,11.90
2023-04-23T02:38:11.358Z,11.80
2023-04-23T02:40:39.369Z,11.90
2023-04-23T02:43:06.352Z,11.80
2023-04-23T02:45:33.473Z,11.90
2023-04-23T02:48:01.012Z,11.80
2023-04-23T02:50:28.045Z,11.80
2023-04-23T02:52:55.212Z,11.90
2023-04-23T02:55:22.986Z,11.90
2023-04-23T02:57:50.319Z,11.90
2023-04-23T03:00:18.242Z,11.90
2023-04-23T03:02:45.825Z,11.90
2023-04-23T03:05:14.651Z,11.90
2023-04-23T03:07:46.347Z,12.00
2023-04-23T03:10:13.264Z,12.00
2023-04-23T03:12:40.136Z,12.20
2023-04-23T03:15:07.745Z,12.10
2023-04-23T03:17:36.707Z,12.10
2023-04-23T03:20:04.894Z,12.30
2023-04-23T03:22:31.966Z,12.20
2023-04-23T03:25:01.761Z,12.10
2023-04-23T03:27:28.715Z,12.20
2023-04-23T03:29:55.934Z,12.20
2023-04-23T03:32:23.193Z,12.20
2023-04-23T03:34:50.838Z,12.10
2023-04-23T03:37:17.808Z,12.00
2023-04-23T03:39:44.782Z,12.10
2023-04-23T03:42:12.298Z,12.00
2023-04-23T03:44:40.598Z,11.90
2023-04-23T03:47:10.900Z,11.70
2023-04-23T03:49:38.430Z,11.70
2023-04-23T03:52:06.133Z,11.80
2023-04-23T03:54:36.156Z,11.70
2023-04-23T03:57:16.495Z,11.70
2023-04-23T04:00:13.083Z,11.70
2023-04-23T04:02:43.918Z,11.60
2023-04-23T04:05:11.504Z,11.60
2023-04-23T04:07:39.137Z,11.40
2023-04-23T04:10:07.497Z,11.50
2023-04-23T04:12:34.436Z,11.50
2023-04-23T04:15:03.300Z,11.30
2023-04-23T04:17:30.353Z,11.10
2023-04-23T04:19:57.260Z,10.90
2023-04-23T04:22:24.471Z,10.90
2023-04-23T04:24:52.730Z,10.90
2023-04-23T04:27:19.769Z,11.00
2023-04-23T04:29:46.689Z,11.00
2023-04-23T04:32:13.907Z,11.20
2023-04-23T04:34:41.167Z,11.00
2023-04-23T04:37:10.042Z,11.00
2023-04-23T04:39:37.252Z,11.00
2023-04-23T04:42:06.690Z,10.90
2023-04-23T04:44:33.692Z,10.90
2023-04-23T04:47:02.553Z,11.00
2023-04-23T04:49:29.560Z,11.10
2023-04-23T04:51:56.446Z,11.10
2023-04-23T04:54:23.374Z,11.20
2023-04-23T04:56:50.311Z,11.30
2023-04-23T04:59:17.290Z,11.20
2023-04-23T05:01:44.532Z,11.30
2023-04-23T05:04:11.683Z,11.40
2023-04-23T05:06:38.925Z,11.50
2023-04-23T05:09:07.775Z,11.50
2023-04-23T05:11:36.016Z,11.50
2023-04-23T05:14:04.499Z,11.40
2023-04-23T05:16:33.158Z,11.50
2023-04-23T05:19:01.630Z,11.50
2023-04-23T05:21:28.852Z,11.50
2023-04-23T05:23:56.097Z,11.60
2023-04-23T05:26:23.573Z,11.50
2023-04-23T05:28:50.595Z,11.50
2023-04-23T05:31:17.704Z,11.60
2023-04-23T05:33:49.908Z,11.30
2023-04-23T05:36:17.939Z,11.30
2023-04-23T05:38:45.151Z,11.30
2023-04-23T05:41:12.235Z,11.30
2023-04-23T05:43:39.273Z,11.40
2023-04-23T05:46:07.887Z,11.40
2023-04-23T05:48:35.323Z,11.30
2023-04-23T05:51:02.412Z,11.40
2023-04-23T05:53:29.417Z,11.50
2023-04-23T05:55:56.420Z,11.50
2023-04-23T05:58:25.169Z,11.60
2023-04-23T06:00:53.202Z,11.70
2023-04-23T06:03:20.589Z,11.90
2023-04-23T06:05:47.766Z,11.90
2023-04-23T06:08:14.868Z,11.90
2023-04-23T06:10:42.528Z,11.90
2023-04-23T06:13:11.018Z,12.10
2023-04-23T06:15:38.302Z,12.20
2023-04-23T06:18:06.463Z,12.20
2023-04-23T06:20:33.441Z,12.30
2023-04-23T06:23:02.846Z,12.50
2023-04-23T06:25:29.934Z,12.50
2023-04-23T06:27:58.556Z,12.70
2023-04-23T06:30:30.037Z,12.60
2023-04-23T06:32:57.284Z,12.70
2023-04-23T06:35:24.552Z,12.80
2023-04-23T06:37:51.566Z,12.90
2023-04-23T06:40:18.562Z,12.80
2023-04-23T06:42:45.891Z,12.80
2023-04-23T06:45:33.528Z,12.90
2023-04-23T06:48:01.449Z,13.00
2023-04-23T06:50:28.481Z,13.10
2023-04-23T06:52:56.430Z,13.10
2023-04-23T06:55:26.355Z,13.30
2023-04-23T06:57:53.647Z,13.40
2023-04-23T07:00:21.210Z,13.50
2023-04-23T07:02:48.319Z,13.60
2023-04-23T07:05:17.731Z,13.70
2023-04-23T07:07:45.022Z,13.70
2023-04-23T07:10:14.334Z,13.80
2023-04-23T07:12:45.215Z,13.80
2023-04-23T07:15:12.338Z,13.70
2023-04-23T07:17:41.562Z,13.80
2023-04-23T07:20:09.575Z,13.90
2023-04-23T07:22:36.538Z,13.90
2023-04-23T07:25:05.385Z,14.00
2023-04-23T07:27:32.331Z,14.10
2023-04-23T07:29:59.196Z,14.20
2023-04-23T07:32:28.225Z,14.40
2023-04-23T07:34:56.301Z,14.60
2023-04-23T07:37:24.580Z,14.70
2023-04-23T07:39:53.683Z,14.60
2023-04-23T07:42:20.801Z,14.80
2023-04-23T07:44:47.962Z,14.90
2023-04-23T07:47:15.962Z,15.00
2023-04-23T07:49:43.239Z,15.00
2023-04-23T07:52:10.822Z,15.20
2023-04-23T07:54:37.766Z,15.30
2023-04-23T07:57:04.736Z,15.40
2023-04-23T07:59:31.732Z,15.50
2023-04-23T08:01:58.694Z,15.70
2023-04-23T08:04:26.072Z,15.80
2023-04-23T08:06:53.281Z,15.90
2023-04-23T08:09:20.187Z,16.00
2023-04-23T08:11:49.319Z,16.00
2023-04-23T08:14:17.652Z,16.00
2023-04-23T08:16:45.851Z,16.20
2023-04-23T08:19:12.929Z,16.30
2023-04-23T08:21:40.037Z,16.40
2023-04-23T08:24:08.042Z,16.60
2023-04-23T08:26:35.008Z,16.70
2023-04-23T08:29:03.099Z,16.80
2023-04-23T08:31:30.199Z,16.80
2023-04-23T08:33:57.955Z,16.80
2023-04-23T08:36:25.725Z,16.90
2023-04-23T08:38:52.660Z,16.80
2023-04-23T08:41:23.591Z,16.80
2023-04-23T08:44:12.462Z,16.90
2023-04-23T08:46:43.460Z,17.00
2023-04-23T08:49:17.840Z,17.00
2023-04-23T08:51:54.247Z,17.00
2023-04-23T08:54:30.426Z,17.00
2023-04-23T08:56:59.292Z,17.30
2023-04-23T08:59:27.508Z,17.50
2023-04-23T09:01:54.553Z,17.60
2023-04-23T09:04:23.120Z,17.60
2023-04-23T09:06:50.446Z,17.80
2023-04-23T09:09:23.775Z,17.90
2023-04-23T09:11:52.272Z,17.80
2023-04-23T09:14:23.155Z,17.80
2023-04-23T09:16:51.053Z,17.80
2023-04-23T09:19:19.040Z,17.70
2023-04-23T09:21:48.103Z,17.40
2023-04-23T09:24:16.473Z,17.50
2023-04-23T09:26:48.784Z,17.40
2023-04-23T09:29:19.856Z,17.20
2023-04-23T09:31:49.769Z,17.20
2023-04-23T09:34:18.361Z,17.20
2023-04-23T09:36:51.129Z,17.40
2023-04-23T09:39:21.750Z,17.40
2023-04-23T09:41:48.914Z,17.60
2023-04-23T09:44:22.436Z,17.60
2023-04-23T09:46:49.533Z,17.40
2023-04-23T09:49:16.874Z,17.40
2023-04-23T09:51:49.991Z,17.30
2023-04-23T09:54:25.096Z,17.20
2023-04-23T09:57:03.075Z,17.30
2023-04-23T09:59:46.993Z,17.50
2023-04-23T10:02:17.712Z,17.80
2023-04-23T10:04:52.634Z,18.00
2023-04-23T10:07:24.943Z,18.20
2023-04-23T10:09:52.973Z,18.50
2023-04-23T10:12:39.738Z,18.50
2023-04-23T10:15:09.691Z,18.80
2023-04-23T10:17:40.198Z,18.90
2023-04-23T10:20:09.937Z,19.00
2023-04-23T10:22:39.839Z,18.70
2023-04-23T10:25:11.348Z,18.50
2023-04-23T10:27:52.642Z,18.50
2023-04-23T10:30:20.902Z,18.60
2023-04-23T10:32:49.786Z,18.50
2023-04-23T10:35:17.074Z,18.40
2023-04-23T10:37:47.213Z,18.30
2023-04-23T10:40:18.879Z,18.30
2023-04-23T10:42:46.672Z,18.50
2023-04-23T10:47:50.113Z,18.40
2023-04-23T10:50:28.838Z,18.40
2023-04-23T10:52:58.688Z,18.60
2023-04-23T10:55:30.703Z,18.70
2023-04-23T10:58:04.005Z,18.90
2023-04-23T11:00:56.129Z,19.10
2023-04-23T11:03:39.668Z,19.50
2023-04-23T11:06:09.272Z,19.50
2023-04-23T11:08:38.613Z,19.50
2023-04-23T11:11:12.072Z,19.50
2023-04-23T11:13:53.448Z,19.50
2023-04-23T11:16:26.274Z,19.60
2023-04-23T11:19:12.981Z,19.40
2023-04-23T11:22:05.321Z,19.30
2023-04-23T11:24:43.455Z,19.60
2023-04-23T11:27:21.960Z,19.80
2023-04-23T11:29:52.848Z,19.90
2023-04-23T11:32:19.988Z,19.60
2023-04-23T11:34:49.858Z,19.40
2023-04-23T11:37:18.670Z,19.40
2023-04-23T11:39:47.673Z,19.50
2023-04-23T11:42:15.866Z,19.40
2023-04-23T11:44:44.746Z,19.40
2023-04-23T11:47:14.910Z,19.30
2023-04-23T11:49:45.705Z,19.30
2023-04-23T11:52:14.451Z,19.30
2023-04-23T11:54:44.272Z,19.00
2023-04-23T11:57:14.639Z,19.10
2023-04-23T11:59:43.057Z,19.30
2023-04-23T12:02:10.919Z,19.50
2023-04-23T12:04:40.832Z,19.90
2023-04-23T12:07:19.654Z,20.20
2023-04-23T12:09:58.160Z,20.40
2023-04-23T12:12:35.519Z,20.50
2023-04-23T12:15:10.768Z,20.60
2023-04-23T12:17:38.348Z,20.80
2023-04-23T12:20:09.680Z,21.10
2023-04-23T12:22:37.997Z,21.40
2023-04-23T12:25:09.877Z,21.70
2023-04-23T12:27:43.930Z,21.80
2023-04-23T12:30:12.166Z,21.70
2023-04-23T12:32:40.370Z,21.50
2023-04-23T12:35:10.142Z,21.00
2023-04-23T12:37:37.982Z,20.00
2023-04-23T12:40:07.213Z,19.40
2023-04-23T12:42:35.542Z,18.60
2023-04-23T12:45:09.685Z,18.10
2023-04-23T12:47:37.505Z,17.70
2023-04-23T12:50:05.810Z,17.40
2023-04-23T12:52:33.288Z,17.50
2023-04-23T12:55:01.617Z,17.60
2023-04-23T12:57:28.920Z,17.60
2023-04-23T12:59:57.275Z,17.50
2023-04-23T13:02:26.163Z,17.40
2023-04-23T13:04:59.600Z,17.30
2023-04-23T13:07:28.791Z,17.00
2023-04-23T13:09:58.088Z,16.60
2023-04-23T13:12:25.538Z,16.30
2023-04-23T13:14:52.731Z,16.00
2023-04-23T13:17:19.804Z,15.80
2023-04-23T13:19:48.318Z,15.60
2023-04-23T13:22:15.259Z,15.70
2023-04-23T13:24:42.938Z,15.60
2023-04-23T13:27:11.306Z,15.60
2023-04-23T13:29:40.584Z,15.60
2023-04-23T13:32:08.025Z,15.60
2023-04-23T13:34:35.867Z,15.70
2023-04-23T13:37:05.735Z,16.00
2023-04-23T13:39:34.068Z,16.10
2023-04-23T13:42:08.904Z,16.30
2023-04-23T13:44:37.933Z,16.50
2023-04-23T13:47:05.070Z,16.50
2023-04-23T13:49:31.965Z,16.50
2023-04-23T13:52:02.260Z,16.50
2023-04-23T13:54:29.764Z,16.60
2023-04-23T13:56:58.306Z,16.60
2023-04-23T13:59:25.873Z,16.50
2023-04-23T14:01:53.073Z,16.30
2023-04-23T14:04:24.165Z,16.20
2023-04-23T14:06:52.343Z,16.10
2023-04-23T14:09:19.293Z,15.90
2023-04-23T14:11:46.253Z,15.80
2023-04-23T14:14:13.225Z,15.80
2023-04-23T14:16:40.251Z,15.70
2023-04-23T14:19:07.175Z,15.70
2023-04-23T14:21:36.550Z,15.70
2023-04-23T14:24:18.474Z,15.80
2023-04-23T14:26:50.066Z,15.70
2023-04-23T14:29:29.444Z,15.90
2023-04-23T14:31:56.590Z,16.00
2023-04-23T14:34:23.635Z,16.20
2023-04-23T14:36:52.824Z,16.30
2023-04-23T14:39:22.083Z,16.50
2023-04-23T14:41:51.492Z,16.70
2023-04-23T14:44:19.049Z,16.70
2023-04-23T14:46:45.977Z,16.90
2023-04-23T14:49:12.910Z,17.00
2023-04-23T14:51:39.854Z,17.30
2023-04-23T14:54:07.271Z,17.60
2023-04-23T14:56:34.212Z,18.30
2023-04-23T14:59:04.912Z,18.60
2023-04-23T15:01:32.189Z,18.50
2023-04-23T15:04:02.973Z,18.60
2023-04-23T15:06:29.985Z,18.30
2023-04-23T15:08:56.969Z,18.20
2023-04-23T15:11:24.228Z,18.10
2023-04-23T15:14:05.333Z,18.30
2023-04-23T15:16:48.077Z,18.40
2023-04-23T15:19:19.474Z,19.00
2023-04-23T15:21:47.743Z,19.20
2023-04-23T15:24:16.403Z,19.10
2023-04-23T15:26:45.830Z,19.10
2023-04-23T15:29:13.727Z,19.20
2023-04-23T15:31:41.995Z,19.00
2023-04-23T15:34:09.700Z,18.70
2023-04-23T15:36:38.028Z,18.60
2023-04-23T15:39:09.343Z,18.70
2023-04-23T15:41:40.291Z,18.20
2023-04-23T15:44:12.496Z,17.90
2023-04-23T15:46:40.169Z,17.60
2023-04-23T15:49:08.576Z,17.30
2023-04-23T15:51:37.424Z,17.10
2023-04-23T15:54:08.830Z,17.00
2023-04-23T15:56:37.767Z,16.90
2023-04-23T15:59:07.878Z,17.00
2023-04-23T16:01:36.125Z,17.00
2023-04-23T16:04:10.827Z,16.80
2023-04-23T16:06:39.022Z,16.60
2023-04-23T16:11:56.276Z,16.40
2023-04-23T16:14:23.298Z,16.10
2023-04-23T16:16:50.528Z,16.20
2023-04-23T16:19:17.762Z,16.10
2023-04-23T16:21:44.702Z,16.00
2023-04-23T16:24:11.809Z,16.10
2023-04-23T16:26:41.501Z,16.00
2023-04-23T16:29:21.479Z,16.00
2023-04-23T16:31:49.624Z,16.20
2023-04-23T16:34:17.945Z,16.00
2023-04-23T16:36:45.034Z,16.00
2023-04-23T16:39:12.954Z,16.00
2023-04-23T16:41:41.497Z,16.10
2023-04-23T16:44:08.811Z,16.10
2023-04-23T16:46:36.138Z,16.00
2023-04-23T16:49:03.644Z,15.90
2023-04-23T16:51:30.706Z,16.00
2023-04-23T16:53:57.902Z,15.90
2023-04-23T16:56:25.059Z,15.90
2023-04-23T16:58:52.003Z,15.80
2023-04-23T17:01:19.372Z,15.80
2023-04-23T17:03:47.618Z,15.60
2023-04-23T17:06:31.876Z,15.60
2023-04-23T17:09:01.253Z,15.60
2023-04-23T17:11:29.484Z,15.40
2023-04-23T17:13:57.557Z,15.30
2023-04-23T17:16:28.289Z,15.40
2023-04-23T17:18:56.006Z,15.50
2023-04-23T17:21:23.918Z,15.30
2023-04-23T17:23:52.429Z,15.10
2023-04-23T17:26:19.476Z,15.00
2023-04-23T17:28:46.744Z,14.90
2023-04-23T17:31:13.749Z,14.70
2023-04-23T17:33:43.604Z,15.00
2023-04-23T17:36:11.738Z,14.90
2023-04-23T17:38:39.118Z,15.00
2023-04-23T17:41:07.592Z,14.70
2023-04-23T17:43:37.730Z,14.40
2023-04-23T17:46:06.675Z,14.10
2023-04-23T17:48:34.866Z,13.90
2023-04-23T17:51:02.227Z,13.70
2023-04-23T17:53:30.037Z,13.50
2023-04-23T17:56:02.565Z,13.40
2023-04-23T17:58:31.654Z,13.20
2023-04-23T18:00:59.403Z,13.10
2023-04-23T18:03:27.911Z,13.00
2023-04-23T18:05:55.456Z,12.90
2023-04-23T18:08:24.346Z,12.80
2023-04-23T18:10:51.385Z,12.60
2023-04-23T18:13:18.486Z,12.50
2023-04-23T18:15:49.794Z,12.40
2023-04-23T18:18:18.098Z,12.40
2023-04-23T18:20:45.900Z,12.30
2023-04-23T18:23:13.403Z,12.10
2023-04-23T18:25:41.855Z,11.90
2023-04-23T18:28:08.893Z,11.70
2023-04-23T18:30:38.194Z,11.40
2023-04-23T18:33:10.536Z,11.20
2023-04-23T18:35:37.424Z,11.10
2023-04-23T18:38:13.531Z,11.00
2023-04-23T18:40:43.905Z,10.80
2023-04-23T18:43:10.898Z,10.90
2023-04-23T18:45:37.820Z,10.90
2023-04-23T18:48:33.711Z,10.80
2023-04-23T18:51:06.197Z,10.80
2023-04-23T18:53:33.196Z,10.70
2023-04-23T18:56:01.106Z,10.60
2023-04-23T18:58:30.833Z,10.70
2023-04-23T19:00:58.977Z,10.60
2023-04-23T19:03:27.608Z,10.60
2023-04-23T19:06:01.486Z,10.60
2023-04-23T19:08:28.951Z,10.60
2023-04-23T19:10:58.478Z,10.60
2023-04-23T19:13:25.750Z,10.70
2023-04-23T19:15:53.020Z,10.70
2023-04-23T19:18:20.446Z,10.70
2023-04-23T19:20:47.487Z,10.70
2023-04-23T19:23:14.893Z,10.80
2023-04-23T19:25:41.830Z,10.80
2023-04-23T19:28:08.757Z,10.80
2023-04-23T19:30:36.034Z,10.70
2023-04-23T19:33:03.100Z,10.60
2023-04-23T19:35:30.131Z,10.70
2023-04-23T19:37:57.071Z,10.50
2023-04-23T19:40:24.020Z,10.80
2023-04-23T19:42:52.640Z,10.60
2023-04-23T19:45:19.826Z,10.60
2023-04-23T19:47:46.832Z,10.70
2023-04-23T19:50:15.547Z,10.70
2023-04-23T19:52:43.814Z,10.70
2023-04-23T19:55:11.009Z,10.70
2023-04-23T19:57:38.215Z,10.70
2023-04-23T20:00:06.735Z,10.90
2023-04-23T20:02:35.143Z,10.90
2023-04-23T20:05:03.350Z,10.90
2023-04-23T20:07:30.993Z,10.90
2023-04-23T20:09:58.012Z,11.00
2023-04-23T20:12:24.942Z,11.10
2023-04-23T20:14:52.172Z,11.10
2023-04-23T20:17:20.075Z,11.10
2023-04-23T20:19:47.728Z,11.20
2023-04-23T20:22:14.893Z,11.00
2023-04-23T20:24:46.345Z,11.00
2023-04-23T20:27:14.598Z,11.00
2023-04-23T20:29:42.351Z,11.10
2023-04-23T20:32:10.580Z,11.10
2023-04-23T20:34:39.371Z,11.20
2023-04-23T20:37:06.998Z,11.30
2023-04-23T20:39:36.093Z,11.30
2023-04-23T20:42:06.504Z,11.30
2023-04-23T20:44:34.775Z,11.30
2023-04-23T20:47:05.716Z,11.20
2023-04-23T20:49:33.339Z,11.20
2023-04-23T20:52:00.986Z,11.30
2023-04-23T20:54:29.103Z,11.30
2023-04-23T20:56:57.846Z,11.30
2023-04-23T20:59:24.903Z,11.40
2023-04-23T21:01:51.846Z,11.40
2023-04-23T21:04:19.026Z,11.40
2023-04-23T21:06:47.212Z,11.40
2023-04-23T21:09:14.490Z,11.30
2023-04-23T21:11:41.723Z,11.30
2023-04-23T21:14:09.417Z,11.40
2023-04-23T21:16:37.709Z,11.40
2023-04-23T21:19:05.941Z,11.50
2023-04-23T21:21:32.970Z,11.40
2023-04-23T21:24:00.901Z,11.40
2023-04-23T21:26:29.497Z,11.50
2023-04-23T21:28:56.932Z,11.40
2023-04-23T21:31:47.701Z,11.30
2023-04-23T21:34:15.220Z,11.30
2023-04-23T21:36:47.002Z,11.30
2023-04-23T21:39:14.030Z,11.40
2023-04-23T21:41:41.096Z,11.30
2023-04-23T21:44:09.680Z,11.20
2023-04-23T21:46:36.859Z,11.10
2023-04-23T21:49:05.510Z,11.00
2023-04-23T21:51:37.056Z,10.90
2023-04-23T21:54:05.879Z,10.90
2023-04-23T21:56:36.260Z,10.80
2023-04-23T21:59:04.315Z,10.70
2023-04-23T22:01:34.298Z,10.60
2023-04-23T22:04:05.029Z,10.50
2023-04-23T22:06:34.855Z,10.40
2023-04-23T22:09:02.114Z,10.30
2023-04-23T22:11:30.606Z,10.40
2023-04-23T22:13:57.669Z,10.20
2023-04-23T22:16:28.581Z,10.20
2023-04-23T22:18:57.451Z,10.20
2023-04-23T22:21:24.691Z,10.10
2023-04-23T22:23:52.003Z,10.10
2023-04-23T22:26:19.694Z,10.10
2023-04-23T22:28:47.067Z,10.00
2023-04-23T22:31:14.108Z,10.10
2023-04-23T22:33:43.649Z,10.10
2023-04-23T22:36:11.394Z,10.10
2023-04-23T22:38:38.483Z,10.20
2023-04-23T22:41:06.140Z,10.10
2023-04-23T22:43:34.599Z,10.10
2023-04-23T22:46:01.741Z,10.10
2023-04-23T22:48:29.005Z,10.20
2023-04-23T22:50:57.604Z,10.10
2023-04-23T22:53:25.076Z,10.30
2023-04-23T22:55:53.411Z,10.20
2023-04-23T22:58:20.624Z,10.20
2023-04-23T23:00:47.572Z,10.30
2023-04-23T23:03:14.616Z,10.30
2023-04-23T23:05:41.634Z,10.40
2023-04-23T23:08:08.621Z,10.30
2023-04-23T23:10:36.794Z,10.40
2023-04-23T23:13:05.304Z,10.40
2023-04-23T23:15:32.595Z,10.40
2023-04-23T23:18:00.022Z,10.40
2023-04-23T23:20:27.015Z,10.40
2023-04-23T23:22:54.023Z,10.40
2023-04-23T23:25:21.149Z,10.40
2023-04-23T23:27:48.136Z,10.40
2023-04-23T23:30:16.393Z,10.40
2023-04-23T23:32:43.400Z,10.40
2023-04-23T23:35:10.479Z,10.60
2023-04-23T23:37:37.774Z,10.50
2023-04-23T23:40:05.772Z,10.40
2023-04-23T23:42:32.753Z,10.40
2023-04-23T23:44:59.700Z,10.40
2023-04-23T23:47:26.937Z,10.40
2023-04-23T23:49:54.004Z,10.30
2023-04-23T23:52:21.095Z,10.30
2023-04-23T23:54:48.092Z,10.20
2023-04-23T23:57:15.682Z,10.30
2023-04-23T23:59:42.913Z,10.20
